createdAt,value
2022-09-28T00:01:16.434Z,8.90
2022-09-28T00:03:43.815Z,8.80
2022-09-28T00:06:12.807Z,8.80
2022-09-28T00:08:39.687Z,8.80
2022-09-28T00:11:08.240Z,9.00
2022-09-28T00:13:35.284Z,8.90
2022-09-28T00:16:11.491Z,8.90
2022-09-28T00:18:38.475Z,9.00
2022-09-28T00:21:05.782Z,8.90
2022-09-28T00:23:33.377Z,8.90
2022-09-28T00:26:05.079Z,9.00
2022-09-28T00:28:32.258Z,9.00
2022-09-28T00:30:59.348Z,9.00
2022-09-28T00:33:26.389Z,8.90
2022-09-28T00:36:00.060Z,8.90
2022-09-28T00:38:28.524Z,9.10
2022-09-28T00:40:56.171Z,9.00
2022-09-28T00:43:24.661Z,9.10
2022-09-28T00:46:31.480Z,9.10
2022-09-28T00:49:08.778Z,9.20
2022-09-28T00:51:38.034Z,9.30
2022-09-28T00:54:07.784Z,9.20
2022-09-28T00:56:40.301Z,9.30
2022-09-28T00:59:09.291Z,9.40
2022-09-28T01:01:36.720Z,9.40
2022-09-28T01:04:04.944Z,9.10
2022-09-28T01:06:36.216Z,9.20
2022-09-28T01:09:06.718Z,9.30
2022-09-28T01:11:38.930Z,9.30
2022-09-28T01:14:11.490Z,9.30
2022-09-28T01:16:42.829Z,9.30
2022-09-28T01:19:28.860Z,9.30
2022-09-28T01:22:32.625Z,9.40
2022-09-28T01:25:34.249Z,9.20
2022-09-28T01:28:14.611Z,9.10
2022-09-28T01:31:06.632Z,9.20
2022-09-28T01:33:46.017Z,9.10
2022-09-28T01:36:19.677Z,9.00
2022-09-28T01:39:02.550Z,9.10
2022-09-28T01:41:31.955Z,9.00
2022-09-28T01:44:02.979Z,9.00
2022-09-28T01:46:38.682Z,8.90
2022-09-28T01:49:22.730Z,8.90
2022-09-28T01:52:05.473Z,9.00
2022-09-28T01:54:42.020Z,9.00
2022-09-28T01:57:20.821Z,8.90
2022-09-28T02:00:01.198Z,8.90
2022-09-28T02:02:35.814Z,9.00
2022-09-28T02:05:16.872Z,8.90
2022-09-28T02:07:54.586Z,8.90
2022-09-28T02:10:29.216Z,8.80
2022-09-28T02:13:05.893Z,8.80
2022-09-28T02:15:51.811Z,8.80
2022-09-28T02:18:18.736Z,8.80
2022-09-28T02:20:53.241Z,8.90
2022-09-28T02:23:22.565Z,8.80
2022-09-28T02:25:58.842Z,8.90
2022-09-28T02:28:25.610Z,8.90
2022-09-28T02:30:52.343Z,8.80
2022-09-28T02:33:24.579Z,8.80
2022-09-28T02:35:51.827Z,8.80
2022-09-28T02:38:18.653Z,8.80
2022-09-28T02:41:10.289Z,8.90
2022-09-28T02:44:13.486Z,8.90
2022-09-28T02:46:59.758Z,8.90
2022-09-28T02:50:03.857Z,9.00
2022-09-28T02:52:48.855Z,8.90
2022-09-28T02:56:04.993Z,8.80
2022-09-28T02:58:52.721Z,9.00
2022-09-28T03:01:25.579Z,9.00
2022-09-28T03:04:08.255Z,9.00
2022-09-28T03:06:52.701Z,9.10
2022-09-28T03:09:29.140Z,9.10
2022-09-28T03:12:04.902Z,9.30
2022-09-28T03:14:31.655Z,9.30
2022-09-28T03:16:58.349Z,9.20
2022-09-28T03:19:30.489Z,9.20
2022-09-28T03:21:57.217Z,9.10
2022-09-28T03:24:23.943Z,9.10
2022-09-28T03:26:50.855Z,9.10
2022-09-28T03:29:17.776Z,9.20
2022-09-28T03:31:44.802Z,9.20
2022-09-28T03:34:11.826Z,9.20
2022-09-28T03:36:38.544Z,9.20
2022-09-28T03:39:05.263Z,9.20
2022-09-28T03:41:31.946Z,9.20
2022-09-28T03:43:58.652Z,9.20
2022-09-28T03:46:25.400Z,9.00
2022-09-28T03:48:52.211Z,9.00
2022-09-28T03:51:18.898Z,9.10
2022-09-28T03:53:45.619Z,9.10
2022-09-28T03:56:14.849Z,9.00
2022-09-28T03:58:42.160Z,9.00
2022-09-28T04:01:16.595Z,9.10
2022-09-28T04:03:44.260Z,9.10
2022-09-28T04:06:11.206Z,9.10
2022-09-28T04:08:38.095Z,9.00
2022-09-28T04:11:04.977Z,8.80
2022-09-28T04:13:32.195Z,9.00
2022-09-28T04:16:00.617Z,9.00
2022-09-28T04:18:28.056Z,8.80
2022-09-28T04:21:10.289Z,8.80
2022-09-28T04:23:38.658Z,8.90
2022-09-28T04:26:07.581Z,8.90
2022-09-28T04:28:52.970Z,8.90
2022-09-28T04:31:23.597Z,8.80
2022-09-28T04:33:50.491Z,8.90
2022-09-28T04:36:19.697Z,9.00
2022-09-28T04:38:53.150Z,9.00
2022-09-28T04:41:22.402Z,8.90
2022-09-28T04:43:50.049Z,8.80
2022-09-28T04:46:17.409Z,8.80
2022-09-28T04:48:44.528Z,8.80
2022-09-28T04:51:11.608Z,9.00
2022-09-28T04:53:38.460Z,9.00
2022-09-28T04:56:08.059Z,9.00
2022-09-28T04:58:35.534Z,9.00
2022-09-28T05:01:06.795Z,9.00
2022-09-28T05:03:34.227Z,9.00
2022-09-28T05:06:01.655Z,9.00
2022-09-28T05:08:28.795Z,9.00
2022-09-28T05:11:00.474Z,8.90
2022-09-28T05:13:28.721Z,8.90
2022-09-28T05:16:05.055Z,8.80
2022-09-28T05:18:32.775Z,8.80
2022-09-28T05:20:59.477Z,8.90
2022-09-28T05:23:26.217Z,8.80
2022-09-28T05:25:53.197Z,8.80
2022-09-28T05:28:27.976Z,8.70
2022-09-28T05:31:00.117Z,8.70
2022-09-28T05:33:27.751Z,8.70
2022-09-28T05:35:59.050Z,8.70
2022-09-28T05:38:27.799Z,8.70
2022-09-28T05:40:54.547Z,8.70
2022-09-28T05:43:21.441Z,8.80
2022-09-28T05:45:52.833Z,8.80
2022-09-28T05:48:21.892Z,8.70
2022-09-28T05:50:52.689Z,8.80
2022-09-28T05:53:19.583Z,8.80
2022-09-28T05:55:46.429Z,8.70
2022-09-28T05:58:13.107Z,8.60
2022-09-28T06:00:39.887Z,8.60
2022-09-28T06:03:10.344Z,8.60
2022-09-28T06:05:39.388Z,8.50
2022-09-28T06:08:08.473Z,8.50
2022-09-28T06:10:35.641Z,8.60
2022-09-28T06:13:02.544Z,8.60
2022-09-28T06:15:31.918Z,8.70
2022-09-28T06:17:59.957Z,8.70
2022-09-28T06:20:28.849Z,8.70
2022-09-28T06:22:55.777Z,8.70
2022-09-28T06:25:23.836Z,8.60
2022-09-28T06:28:01.327Z,8.70
2022-09-28T06:30:29.983Z,8.70
2022-09-28T06:32:58.802Z,8.70
2022-09-28T06:35:27.418Z,8.90
2022-09-28T06:37:54.339Z,9.10
2022-09-28T06:40:22.359Z,9.30
2022-09-28T06:43:00.736Z,9.00
2022-09-28T06:45:29.692Z,9.10
2022-09-28T06:48:00.987Z,9.10
2022-09-28T06:50:33.423Z,9.20
2022-09-28T06:53:01.140Z,9.10
2022-09-28T06:55:28.891Z,9.10
2022-09-28T06:58:07.616Z,9.00
2022-09-28T07:00:36.619Z,9.00
2022-09-28T07:03:05.339Z,9.00
2022-09-28T07:05:35.065Z,9.20
2022-09-28T07:08:02.415Z,9.20
2022-09-28T07:10:30.679Z,9.20
2022-09-28T07:13:01.098Z,9.30
2022-09-28T07:15:29.388Z,9.30
2022-09-28T07:18:03.184Z,9.40
2022-09-28T07:20:39.151Z,9.40
2022-09-28T07:23:19.061Z,9.50
2022-09-28T07:25:47.968Z,9.60
2022-09-28T07:28:15.779Z,9.60
2022-09-28T07:30:44.855Z,9.80
2022-09-28T07:33:14.414Z,9.80
2022-09-28T07:35:44.385Z,9.90
2022-09-28T07:38:11.643Z,9.90
2022-09-28T07:40:57.209Z,10.00
2022-09-28T07:43:24.301Z,10.00
2022-09-28T07:45:52.899Z,10.10
2022-09-28T07:48:20.420Z,10.30
2022-09-28T07:50:52.278Z,10.50
2022-09-28T07:53:23.263Z,10.60
2022-09-28T07:55:54.425Z,10.70
2022-09-28T07:58:21.412Z,10.80
2022-09-28T08:00:49.898Z,11.00
2022-09-28T08:03:18.573Z,10.90
2022-09-28T08:05:46.878Z,10.90
2022-09-28T08:08:14.597Z,11.10
2022-09-28T08:10:47.227Z,11.30
2022-09-28T08:13:15.249Z,11.60
2022-09-28T08:15:42.666Z,12.10
2022-09-28T08:18:09.941Z,12.10
2022-09-28T08:20:55.185Z,12.00
2022-09-28T08:23:23.339Z,12.10
2022-09-28T08:25:54.078Z,11.90
2022-09-28T08:28:22.869Z,12.10
2022-09-28T08:30:50.267Z,12.40
2022-09-28T08:33:20.350Z,12.70
2022-09-28T08:35:48.240Z,12.70
2022-09-28T08:38:15.357Z,13.50
2022-09-28T08:40:57.727Z,13.40
2022-09-28T08:43:34.895Z,13.50
2022-09-28T08:46:01.882Z,13.50
2022-09-28T08:48:52.271Z,13.70
2022-09-28T08:51:53.343Z,14.00
2022-09-28T08:54:38.446Z,13.50
2022-09-28T08:57:15.432Z,13.40
2022-09-28T08:59:48.653Z,14.00
2022-09-28T09:02:23.204Z,13.90
2022-09-28T09:04:52.044Z,13.80
2022-09-28T09:07:28.736Z,13.90
2022-09-28T09:10:04.400Z,13.80
2022-09-28T09:12:40.432Z,13.70
2022-09-28T09:15:17.401Z,14.00
2022-09-28T09:18:10.836Z,13.40
2022-09-28T09:21:07.520Z,13.60
2022-09-28T09:23:53.516Z,13.60
2022-09-28T09:26:26.537Z,13.20
2022-09-28T09:29:14.104Z,13.20
2022-09-28T09:32:05.716Z,13.30
2022-09-28T09:34:44.363Z,13.20
2022-09-28T09:37:26.194Z,13.40
2022-09-28T09:40:07.829Z,13.20
2022-09-28T09:43:13.072Z,13.30
2022-09-28T09:46:06.197Z,13.40
2022-09-28T09:48:46.077Z,13.40
2022-09-28T09:51:33.026Z,13.50
2022-09-28T09:54:03.614Z,13.40
2022-09-28T09:56:40.287Z,13.90
2022-09-28T09:59:24.259Z,14.00
2022-09-28T10:01:53.015Z,13.90
2022-09-28T10:04:43.302Z,13.90
2022-09-28T10:07:18.833Z,13.80
2022-09-28T10:09:48.351Z,14.00
2022-09-28T10:12:20.703Z,14.20
2022-09-28T10:14:47.597Z,13.90
2022-09-28T10:17:20.058Z,13.80
2022-09-28T10:19:47.007Z,13.70
2022-09-28T10:22:20.577Z,13.80
2022-09-28T10:24:51.101Z,14.20
2022-09-28T10:27:30.527Z,14.20
2022-09-28T10:30:09.497Z,13.90
2022-09-28T10:32:40.347Z,13.80
2022-09-28T10:35:19.268Z,14.00
2022-09-28T10:38:07.396Z,14.10
2022-09-28T10:40:43.611Z,14.10
2022-09-28T10:43:33.600Z,13.90
2022-09-28T10:46:09.905Z,13.80
2022-09-28T10:48:50.682Z,13.80
2022-09-28T10:51:17.881Z,13.90
2022-09-28T10:54:01.746Z,14.20
2022-09-28T10:56:35.414Z,14.00
2022-09-28T10:59:02.273Z,14.00
2022-09-28T11:01:33.190Z,14.00
2022-09-28T11:04:20.017Z,14.10
2022-09-28T11:06:47.025Z,14.00
2022-09-28T11:09:30.869Z,14.10
2022-09-28T11:11:59.895Z,14.10
2022-09-28T11:14:31.174Z,14.10
2022-09-28T11:17:30.688Z,13.90
2022-09-28T11:20:19.942Z,13.80
2022-09-28T11:22:51.165Z,13.60
2022-09-28T11:25:18.484Z,13.50
2022-09-28T11:27:51.108Z,13.60
2022-09-28T11:30:42.325Z,14.10
2022-09-28T11:33:26.249Z,14.50
2022-09-28T11:36:14.611Z,14.80
2022-09-28T11:39:02.492Z,15.00
2022-09-28T11:41:50.913Z,15.00
2022-09-28T11:44:41.300Z,15.30
2022-09-28T11:47:32.941Z,15.50
2022-09-28T11:50:24.333Z,15.60
2022-09-28T11:53:11.606Z,16.10
2022-09-28T11:55:51.768Z,16.20
2022-09-28T11:58:23.484Z,16.60
2022-09-28T12:00:59.297Z,17.20
2022-09-28T12:03:34.135Z,16.30
2022-09-28T12:06:06.204Z,16.10
2022-09-28T12:08:42.180Z,15.80
2022-09-28T12:11:19.399Z,16.10
2022-09-28T12:13:49.525Z,16.70
2022-09-28T12:16:53.059Z,16.90
2022-09-28T12:19:20.966Z,16.30
2022-09-28T12:21:51.388Z,15.90
2022-09-28T12:24:42.331Z,15.70
2022-09-28T12:27:20.672Z,15.90
2022-09-28T12:30:01.217Z,17.00
2022-09-28T12:32:38.216Z,17.30
2022-09-28T12:35:24.309Z,17.30
2022-09-28T12:38:24.466Z,16.90
2022-09-28T12:41:23.931Z,16.40
2022-09-28T12:44:06.720Z,15.90
2022-09-28T12:47:11.319Z,16.20
2022-09-28T12:53:19.377Z,16.00
2022-09-28T12:56:16.777Z,15.80
2022-09-28T12:59:17.965Z,15.30
2022-09-28T13:02:34.327Z,14.70
2022-09-28T13:05:05.042Z,14.80
2022-09-28T13:07:42.915Z,14.70
2022-09-28T13:10:12.392Z,14.30
2022-09-28T13:13:12.151Z,13.90
2022-09-28T13:16:02.602Z,13.90
2022-09-28T13:18:43.665Z,14.00
2022-09-28T13:21:28.281Z,14.10
2022-09-28T13:24:09.016Z,14.00
2022-09-28T13:26:44.878Z,14.00
2022-09-28T13:29:14.847Z,13.90
2022-09-28T13:31:55.098Z,14.00
2022-09-28T13:34:25.171Z,13.80
2022-09-28T13:37:25.735Z,13.80
2022-09-28T13:39:56.271Z,13.70
2022-09-28T13:42:51.446Z,13.60
2022-09-28T13:45:21.177Z,13.70
2022-09-28T13:47:59.881Z,13.60
2022-09-28T13:50:36.647Z,13.40
2022-09-28T13:53:27.129Z,13.40
2022-09-28T13:56:17.664Z,13.40
2022-09-28T13:59:03.549Z,13.60
2022-09-28T14:01:37.643Z,13.50
2022-09-28T14:04:21.918Z,13.60
2022-09-28T14:07:08.770Z,13.80
2022-09-28T14:10:16.448Z,13.90
2022-09-28T14:12:45.305Z,13.80
2022-09-28T14:15:30.261Z,14.00
2022-09-28T14:18:25.640Z,14.20
2022-09-28T14:21:19.866Z,14.40
2022-09-28T14:24:19.045Z,14.50
2022-09-28T14:27:14.105Z,14.50
2022-09-28T14:29:41.284Z,14.40
2022-09-28T14:32:10.843Z,14.50
2022-09-28T14:34:46.649Z,14.60
2022-09-28T14:37:43.332Z,14.80
2022-09-28T14:40:35.952Z,14.60
2022-09-28T14:43:24.883Z,14.60
2022-09-28T14:46:17.242Z,14.50
2022-09-28T14:48:52.711Z,14.30
2022-09-28T14:51:30.089Z,13.90
2022-09-28T14:54:08.097Z,13.90
2022-09-28T14:56:58.945Z,14.00
2022-09-28T14:59:30.308Z,14.00
2022-09-28T15:02:27.662Z,13.80
2022-09-28T15:04:56.931Z,13.80
2022-09-28T15:07:30.303Z,13.80
2022-09-28T15:10:00.931Z,13.90
2022-09-28T15:12:30.179Z,14.00
2022-09-28T15:15:05.565Z,14.00
2022-09-28T15:17:39.550Z,14.10
2022-09-28T15:20:33.501Z,14.10
2022-09-28T15:23:00.385Z,14.20
2022-09-28T15:25:32.700Z,14.20
2022-09-28T15:28:17.182Z,14.10
2022-09-28T15:30:43.952Z,14.20
2022-09-28T15:33:43.503Z,14.30
2022-09-28T15:36:28.363Z,14.20
2022-09-28T15:39:12.094Z,14.10
2022-09-28T15:41:39.120Z,14.00
2022-09-28T15:44:25.298Z,14.00
2022-09-28T15:47:23.880Z,14.10
2022-09-28T15:49:58.618Z,14.10
2022-09-28T15:52:43.725Z,13.80
2022-09-28T15:55:30.469Z,13.70
2022-09-28T15:58:06.328Z,13.90
2022-09-28T16:00:33.534Z,13.70
2022-09-28T16:03:20.407Z,13.70
2022-09-28T16:06:08.877Z,13.80
2022-09-28T16:08:42.111Z,13.80
2022-09-28T16:11:14.724Z,13.80
2022-09-28T16:14:29.120Z,13.90
2022-09-28T16:16:58.379Z,14.00
2022-09-28T16:19:32.282Z,13.90
2022-09-28T16:22:02.439Z,13.90
2022-09-28T16:24:35.111Z,13.70
2022-09-28T16:27:08.186Z,13.50
2022-09-28T16:29:40.542Z,13.40
2022-09-28T16:32:25.674Z,13.40
2022-09-28T16:35:13.664Z,13.40
2022-09-28T16:37:42.581Z,13.50
2022-09-28T16:40:10.724Z,13.40
2022-09-28T16:42:45.473Z,13.30
2022-09-28T16:45:20.686Z,13.20
2022-09-28T16:47:51.954Z,13.30
2022-09-28T16:50:22.563Z,13.20
2022-09-28T16:53:16.014Z,13.10
2022-09-28T16:55:43.021Z,13.10
2022-09-28T16:58:09.933Z,13.10
2022-09-28T17:00:36.801Z,13.00
2022-09-28T17:03:13.075Z,12.90
2022-09-28T17:05:40.225Z,12.90
2022-09-28T17:08:08.933Z,12.80
2022-09-28T17:10:56.083Z,12.90
2022-09-28T17:13:33.223Z,12.70
2022-09-28T17:16:01.692Z,12.80
2022-09-28T17:18:31.802Z,12.60
2022-09-28T17:21:03.122Z,12.40
2022-09-28T17:23:30.518Z,12.40
2022-09-28T17:25:59.124Z,12.40
2022-09-28T17:28:37.195Z,12.40
2022-09-28T17:31:06.949Z,12.40
2022-09-28T17:33:33.702Z,12.40
2022-09-28T17:36:02.510Z,12.40
2022-09-28T17:38:29.352Z,12.40
2022-09-28T17:40:56.273Z,12.40
2022-09-28T17:43:23.024Z,12.30
2022-09-28T17:45:50.686Z,12.30
2022-09-28T17:48:23.310Z,12.20
2022-09-28T17:50:50.636Z,12.20
2022-09-28T17:53:17.370Z,12.10
2022-09-28T17:55:44.304Z,12.00
2022-09-28T17:58:22.165Z,12.00
2022-09-28T18:00:51.410Z,12.00
2022-09-28T18:03:23.486Z,11.90
2022-09-28T18:05:59.136Z,11.70
2022-09-28T18:08:25.858Z,11.80
2022-09-28T18:10:52.600Z,11.80
2022-09-28T18:13:19.276Z,11.80
2022-09-28T18:15:46.133Z,11.80
2022-09-28T18:18:13.002Z,11.80
2022-09-28T18:20:41.278Z,11.80
2022-09-28T18:23:08.014Z,11.70
2022-09-28T18:25:34.726Z,11.70
2022-09-28T18:28:01.523Z,11.70
2022-09-28T18:30:28.395Z,11.70
2022-09-28T18:32:55.581Z,11.70
2022-09-28T18:35:23.324Z,11.60
2022-09-28T18:37:50.539Z,11.60
2022-09-28T18:40:17.593Z,11.50
2022-09-28T18:42:44.328Z,11.50
2022-09-28T18:45:11.390Z,11.40
2022-09-28T18:47:39.041Z,11.30
2022-09-28T18:50:06.255Z,11.40
2022-09-28T18:52:36.515Z,11.30
2022-09-28T18:55:05.212Z,11.30
2022-09-28T18:57:33.518Z,11.20
2022-09-28T19:00:01.153Z,11.30
2022-09-28T19:02:28.118Z,11.20
2022-09-28T19:04:54.919Z,11.20
2022-09-28T19:07:21.684Z,11.20
2022-09-28T19:09:48.448Z,11.20
2022-09-28T19:12:15.255Z,11.20
2022-09-28T19:14:41.980Z,11.30
2022-09-28T19:17:08.705Z,11.20
2022-09-28T19:19:35.738Z,11.10
2022-09-28T19:22:02.536Z,11.10
2022-09-28T19:24:29.243Z,11.10
2022-09-28T19:26:56.603Z,11.10
2022-09-28T19:29:23.388Z,11.10
2022-09-28T19:31:50.125Z,11.00
2022-09-28T19:34:17.086Z,11.00
2022-09-28T19:36:44.292Z,10.90
2022-09-28T19:39:14.601Z,10.90
2022-09-28T19:41:44.800Z,11.00
2022-09-28T19:44:27.203Z,10.90
2022-09-28T19:47:06.727Z,10.80
2022-09-28T19:49:37.978Z,10.80
2022-09-28T19:52:14.314Z,10.70
2022-09-28T19:55:00.152Z,10.80
2022-09-28T19:57:31.011Z,10.70
2022-09-28T20:00:02.040Z,10.50
2022-09-28T20:02:29.909Z,10.60
2022-09-28T20:04:56.732Z,10.60
2022-09-28T20:07:23.523Z,10.60
2022-09-28T20:09:50.631Z,10.60
2022-09-28T20:12:17.441Z,10.60
2022-09-28T20:14:44.277Z,10.60
2022-09-28T20:17:11.194Z,10.60
2022-09-28T20:19:38.269Z,10.60
2022-09-28T20:22:07.515Z,10.50
2022-09-28T20:24:34.442Z,10.50
2022-09-28T20:27:01.746Z,10.50
2022-09-28T20:29:31.366Z,10.40
2022-09-28T20:31:58.228Z,10.50
2022-09-28T20:34:24.960Z,10.50
2022-09-28T20:36:51.636Z,10.40
2022-09-28T20:39:18.714Z,10.40
2022-09-28T20:41:47.177Z,10.40
2022-09-28T20:44:13.946Z,10.30
2022-09-28T20:46:40.817Z,10.30
2022-09-28T20:49:07.820Z,10.30
2022-09-28T20:51:34.681Z,10.30
2022-09-28T20:54:01.501Z,10.30
2022-09-28T20:56:39.959Z,10.30
2022-09-28T20:59:11.954Z,10.20
2022-09-28T21:01:39.114Z,10.30
2022-09-28T21:04:07.939Z,10.20
2022-09-28T21:06:37.309Z,10.10
2022-09-28T21:09:05.539Z,10.20
2022-09-28T21:11:34.267Z,10.20
2022-09-28T21:14:03.142Z,10.20
2022-09-28T21:16:31.652Z,10.20
2022-09-28T21:18:58.668Z,10.20
2022-09-28T21:21:26.561Z,10.10
2022-09-28T21:23:54.723Z,10.00
2022-09-28T21:26:26.680Z,10.00
2022-09-28T21:28:55.544Z,10.20
2022-09-28T21:31:28.918Z,10.10
2022-09-28T21:33:57.130Z,9.90
2022-09-28T21:36:24.468Z,9.90
2022-09-28T21:38:51.440Z,9.90
2022-09-28T21:41:18.151Z,10.00
2022-09-28T21:43:45.909Z,10.00
2022-09-28T21:46:12.797Z,10.10
2022-09-28T21:48:39.601Z,10.00
2022-09-28T21:51:09.220Z,10.00
2022-09-28T21:53:37.758Z,10.00
2022-09-28T21:56:06.766Z,10.00
2022-09-28T21:58:35.631Z,10.00
2022-09-28T22:01:14.668Z,9.90
2022-09-28T22:03:44.058Z,9.90
2022-09-28T22:06:11.668Z,9.90
2022-09-28T22:08:38.737Z,9.90
2022-09-28T22:11:11.192Z,9.80
2022-09-28T22:13:42.647Z,9.80
2022-09-28T22:16:10.815Z,9.80
2022-09-28T22:18:37.825Z,9.80
2022-09-28T22:21:17.146Z,9.70
2022-09-28T22:23:44.235Z,9.70
2022-09-28T22:26:21.606Z,9.80
2022-09-28T22:28:54.157Z,9.70
2022-09-28T22:31:26.803Z,9.60
2022-09-28T22:33:53.776Z,9.70
2022-09-28T22:36:20.989Z,9.70
2022-09-28T22:38:48.685Z,9.60
2022-09-28T22:41:17.411Z,9.70
2022-09-28T22:43:44.426Z,9.70
2022-09-28T22:46:16.627Z,9.60
2022-09-28T22:48:47.724Z,9.60
2022-09-28T22:51:15.276Z,9.60
2022-09-28T22:53:42.646Z,9.50
2022-09-28T22:56:12.581Z,9.50
2022-09-28T22:58:43.474Z,9.60
2022-09-28T23:01:11.274Z,9.60
2022-09-28T23:03:40.393Z,9.50
2022-09-28T23:06:07.530Z,9.40
2022-09-28T23:08:34.868Z,9.50
2022-09-28T23:11:02.174Z,9.50
2022-09-28T23:13:31.074Z,9.60
2022-09-28T23:15:59.715Z,9.50
2022-09-28T23:18:29.531Z,9.40
2022-09-28T23:20:58.420Z,9.40
2022-09-28T23:23:25.815Z,9.50
2022-09-28T23:25:53.460Z,9.50
2022-09-28T23:28:21.405Z,9.40
2022-09-28T23:30:48.691Z,9.30
2022-09-28T23:33:16.759Z,9.10
2022-09-28T23:35:44.013Z,9.20
2022-09-28T23:38:13.477Z,9.30
2022-09-28T23:40:41.163Z,9.30
2022-09-28T23:43:08.484Z,9.30
2022-09-28T23:45:35.273Z,9.30
2022-09-28T23:48:02.619Z,9.30
2022-09-28T23:50:29.349Z,9.30
2022-09-28T23:52:56.189Z,9.20
2022-09-28T23:55:22.965Z,9.10
2022-09-28T23:57:49.675Z,9.10
